sensor_id;sensor_type;location;lat;lon;timestamp;P1;durP1;ratioP1;P2;durP2;ratioP2
19016;SDS011;9641;51.494;6.670;2024-01-16T00:01:00;11.53;;;5.80;;
19016;SDS011;9641;51.494;6.670;2024-01-16T00:03:28;9.70;;;5.60;;
19016;SDS011;9641;51.494;6.670;2024-01-16T00:05:55;11.23;;;5.30;;
19016;SDS011;9641;51.494;6.670;2024-01-16T00:08:21;8.77;;;5.20;;
19016;SDS011;9641;51.494;6.670;2024-01-16T00:10:48;11.23;;;4.90;;
19016;SDS011;9641;51.494;6.670;2024-01-16T00:13:17;11.03;;;5.53;;
19016;SDS011;9641;51.494;6.670;2024-01-16T00:15:44;13.33;;;5.90;;
19016;SDS011;9641;51.494;6.670;2024-01-16T00:18:11;8.67;;;5.23;;
19016;SDS011;9641;51.494;6.670;2024-01-16T00:20:39;8.23;;;5.30;;
19016;SDS011;9641;51.494;6.670;2024-01-16T00:23:06;11.57;;;4.90;;
19016;SDS011;9641;51.494;6.670;2024-01-16T00:25:33;8.43;;;5.87;;
19016;SDS011;9641;51.494;6.670;2024-01-16T00:28:01;7.43;;;5.53;;
19016;SDS011;9641;51.494;6.670;2024-01-16T00:30:29;8.63;;;5.40;;
19016;SDS011;9641;51.494;6.670;2024-01-16T00:32:56;12.30;;;5.60;;
19016;SDS011;9641;51.494;6.670;2024-01-16T00:35:23;12.23;;;4.80;;
19016;SDS011;9641;51.494;6.670;2024-01-16T00:37:51;12.97;;;5.07;;
19016;SDS011;9641;51.494;6.670;2024-01-16T00:40:18;8.37;;;4.83;;
19016;SDS011;9641;51.494;6.670;2024-01-16T00:42:45;10.07;;;5.37;;
19016;SDS011;9641;51.494;6.670;2024-01-16T00:45:12;7.67;;;4.97;;
19016;SDS011;9641;51.494;6.670;2024-01-16T00:47:39;6.90;;;4.97;;
19016;SDS011;9641;51.494;6.670;2024-01-16T00:50:06;10.33;;;5.43;;
19016;SDS011;9641;51.494;6.670;2024-01-16T00:52:34;12.40;;;4.80;;
19016;SDS011;9641;51.494;6.670;2024-01-16T00:55:02;11.03;;;5.50;;
19016;SDS011;9641;51.494;6.670;2024-01-16T00:57:29;12.73;;;4.70;;
19016;SDS011;9641;51.494;6.670;2024-01-16T00:59:56;14.20;;;5.17;;
19016;SDS011;9641;51.494;6.670;2024-01-16T01:02:23;12.17;;;4.83;;
19016;SDS011;9641;51.494;6.670;2024-01-16T01:04:50;13.73;;;4.97;;
19016;SDS011;9641;51.494;6.670;2024-01-16T01:07:17;9.47;;;5.50;;
19016;SDS011;9641;51.494;6.670;2024-01-16T01:09:44;9.47;;;5.33;;
19016;SDS011;9641;51.494;6.670;2024-01-16T01:12:12;9.07;;;4.83;;
19016;SDS011;9641;51.494;6.670;2024-01-16T01:14:39;12.23;;;5.07;;
19016;SDS011;9641;51.494;6.670;2024-01-16T01:17:06;8.73;;;5.37;;
19016;SDS011;9641;51.494;6.670;2024-01-16T01:19:33;8.87;;;5.67;;
19016;SDS011;9641;51.494;6.670;2024-01-16T01:22:00;14.13;;;6.03;;
19016;SDS011;9641;51.494;6.670;2024-01-16T01:24:27;10.00;;;5.47;;
19016;SDS011;9641;51.494;6.670;2024-01-16T01:26:54;13.47;;;5.80;;
19016;SDS011;9641;51.494;6.670;2024-01-16T01:29:22;10.30;;;5.90;;
19016;SDS011;9641;51.494;6.670;2024-01-16T01:31:49;9.80;;;5.43;;
19016;SDS011;9641;51.494;6.670;2024-01-16T01:34:16;9.87;;;5.63;;
19016;SDS011;9641;51.494;6.670;2024-01-16T01:36:43;10.47;;;5.80;;
19016;SDS011;9641;51.494;6.670;2024-01-16T01:39:10;10.10;;;5.70;;
19016;SDS011;9641;51.494;6.670;2024-01-16T01:41:38;9.80;;;5.90;;
19016;SDS011;9641;51.494;6.670;2024-01-16T01:44:06;11.83;;;5.70;;
19016;SDS011;9641;51.494;6.670;2024-01-16T01:46:44;11.23;;;5.37;;
19016;SDS011;9641;51.494;6.670;2024-01-16T01:49:12;11.57;;;6.20;;
19016;SDS011;9641;51.494;6.670;2024-01-16T01:51:42;14.10;;;5.53;;
19016;SDS011;9641;51.494;6.670;2024-01-16T01:54:09;17.30;;;6.23;;
19016;SDS011;9641;51.494;6.670;2024-01-16T01:56:38;14.80;;;6.00;;
19016;SDS011;9641;51.494;6.670;2024-01-16T01:59:05;12.53;;;6.10;;
19016;SDS011;9641;51.494;6.670;2024-01-16T02:01:33;9.97;;;5.20;;
19016;SDS011;9641;51.494;6.670;2024-01-16T02:04:02;16.03;;;6.40;;
19016;SDS011;9641;51.494;6.670;2024-01-16T02:06:30;10.40;;;5.97;;
19016;SDS011;9641;51.494;6.670;2024-01-16T02:08:57;16.07;;;6.53;;
19016;SDS011;9641;51.494;6.670;2024-01-16T02:11:24;13.27;;;5.87;;
19016;SDS011;9641;51.494;6.670;2024-01-16T02:13:51;8.93;;;5.60;;
19016;SDS011;9641;51.494;6.670;2024-01-16T02:16:19;9.43;;;6.00;;
19016;SDS011;9641;51.494;6.670;2024-01-16T02:18:46;8.63;;;5.43;;
19016;SDS011;9641;51.494;6.670;2024-01-16T02:21:17;8.97;;;5.80;;
19016;SDS011;9641;51.494;6.670;2024-01-16T02:23:48;9.43;;;6.30;;
19016;SDS011;9641;51.494;6.670;2024-01-16T02:26:16;8.27;;;6.07;;
19016;SDS011;9641;51.494;6.670;2024-01-16T02:28:43;9.63;;;6.40;;
19016;SDS011;9641;51.494;6.670;2024-01-16T02:31:10;11.50;;;6.07;;
19016;SDS011;9641;51.494;6.670;2024-01-16T02:33:37;11.73;;;6.40;;
19016;SDS011;9641;51.494;6.670;2024-01-16T02:36:04;12.43;;;7.27;;
19016;SDS011;9641;51.494;6.670;2024-01-16T02:38:31;9.60;;;7.07;;
19016;SDS011;9641;51.494;6.670;2024-01-16T02:40:59;13.53;;;7.57;;
19016;SDS011;9641;51.494;6.670;2024-01-16T02:43:26;13.50;;;7.60;;
19016;SDS011;9641;51.494;6.670;2024-01-16T02:45:53;13.13;;;7.97;;
19016;SDS011;9641;51.494;6.670;2024-01-16T02:48:20;12.57;;;7.13;;
19016;SDS011;9641;51.494;6.670;2024-01-16T02:50:47;13.10;;;7.90;;
19016;SDS011;9641;51.494;6.670;2024-01-16T02:53:14;15.43;;;8.13;;
19016;SDS011;9641;51.494;6.670;2024-01-16T02:55:41;14.30;;;8.47;;
19016;SDS011;9641;51.494;6.670;2024-01-16T02:58:09;15.60;;;7.73;;
19016;SDS011;9641;51.494;6.670;2024-01-16T03:00:36;14.97;;;7.80;;
19016;SDS011;9641;51.494;6.670;2024-01-16T03:03:03;13.37;;;7.30;;
19016;SDS011;9641;51.494;6.670;2024-01-16T03:05:30;12.43;;;6.97;;
19016;SDS011;9641;51.494;6.670;2024-01-16T03:07:57;12.97;;;7.40;;
19016;SDS011;9641;51.494;6.670;2024-01-16T03:10:24;9.93;;;7.10;;
19016;SDS011;9641;51.494;6.670;2024-01-16T03:12:51;14.43;;;8.20;;
19016;SDS011;9641;51.494;6.670;2024-01-16T03:15:20;17.00;;;8.33;;
19016;SDS011;9641;51.494;6.670;2024-01-16T03:17:47;14.77;;;7.83;;
19016;SDS011;9641;51.494;6.670;2024-01-16T03:20:15;16.83;;;7.23;;
19016;SDS011;9641;51.494;6.670;2024-01-16T03:22:42;13.40;;;7.63;;
19016;SDS011;9641;51.494;6.670;2024-01-16T03:25:09;16.27;;;7.63;;
19016;SDS011;9641;51.494;6.670;2024-01-16T03:27:37;15.37;;;7.73;;
19016;SDS011;9641;51.494;6.670;2024-01-16T03:30:05;19.70;;;8.37;;
19016;SDS011;9641;51.494;6.670;2024-01-16T03:32:34;18.50;;;8.10;;
19016;SDS011;9641;51.494;6.670;2024-01-16T03:35:01;16.87;;;8.67;;
19016;SDS011;9641;51.494;6.670;2024-01-16T03:37:28;14.00;;;8.20;;
19016;SDS011;9641;51.494;6.670;2024-01-16T03:39:55;18.07;;;8.47;;
19016;SDS011;9641;51.494;6.670;2024-01-16T03:42:22;16.97;;;8.97;;
19016;SDS011;9641;51.494;6.670;2024-01-16T03:44:49;16.20;;;9.40;;
19016;SDS011;9641;51.494;6.670;2024-01-16T03:47:17;18.97;;;8.70;;
19016;SDS011;9641;51.494;6.670;2024-01-16T03:49:45;16.37;;;9.03;;
19016;SDS011;9641;51.494;6.670;2024-01-16T03:52:12;18.70;;;9.27;;
19016;SDS011;9641;51.494;6.670;2024-01-16T03:54:39;14.20;;;8.10;;
19016;SDS011;9641;51.494;6.670;2024-01-16T03:57:06;16.93;;;9.17;;
19016;SDS011;9641;51.494;6.670;2024-01-16T03:59:36;18.47;;;9.53;;
19016;SDS011;9641;51.494;6.670;2024-01-16T04:02:03;22.60;;;8.43;;
19016;SDS011;9641;51.494;6.670;2024-01-16T04:04:30;18.73;;;10.07;;
19016;SDS011;9641;51.494;6.670;2024-01-16T04:06:58;19.77;;;9.03;;
19016;SDS011;9641;51.494;6.670;2024-01-16T04:09:25;16.97;;;8.70;;
19016;SDS011;9641;51.494;6.670;2024-01-16T04:11:51;13.43;;;7.77;;
19016;SDS011;9641;51.494;6.670;2024-01-16T04:14:18;15.97;;;8.37;;
19016;SDS011;9641;51.494;6.670;2024-01-16T04:16:45;18.40;;;8.77;;
19016;SDS011;9641;51.494;6.670;2024-01-16T04:19:12;15.50;;;7.83;;
19016;SDS011;9641;51.494;6.670;2024-01-16T04:21:39;13.73;;;7.53;;
19016;SDS011;9641;51.494;6.670;2024-01-16T04:24:07;13.70;;;7.43;;
19016;SDS011;9641;51.494;6.670;2024-01-16T04:26:35;10.63;;;7.17;;
19016;SDS011;9641;51.494;6.670;2024-01-16T04:29:02;13.37;;;6.90;;
19016;SDS011;9641;51.494;6.670;2024-01-16T04:31:30;16.60;;;6.60;;
19016;SDS011;9641;51.494;6.670;2024-01-16T04:33:57;11.47;;;6.87;;
19016;SDS011;9641;51.494;6.670;2024-01-16T04:36:24;11.83;;;6.00;;
19016;SDS011;9641;51.494;6.670;2024-01-16T04:38:51;9.07;;;5.93;;
19016;SDS011;9641;51.494;6.670;2024-01-16T04:41:19;10.87;;;6.10;;
19016;SDS011;9641;51.494;6.670;2024-01-16T04:43:46;9.43;;;5.87;;
19016;SDS011;9641;51.494;6.670;2024-01-16T04:46:14;8.20;;;5.07;;
19016;SDS011;9641;51.494;6.670;2024-01-16T04:48:41;10.17;;;5.83;;
19016;SDS011;9641;51.494;6.670;2024-01-16T04:51:08;8.53;;;5.17;;
19016;SDS011;9641;51.494;6.670;2024-01-16T04:53:35;6.73;;;4.80;;
19016;SDS011;9641;51.494;6.670;2024-01-16T04:56:02;13.80;;;5.10;;
19016;SDS011;9641;51.494;6.670;2024-01-16T04:58:30;7.03;;;5.13;;
19016;SDS011;9641;51.494;6.670;2024-01-16T05:00:58;7.53;;;4.57;;
19016;SDS011;9641;51.494;6.670;2024-01-16T05:03:25;9.17;;;4.20;;
19016;SDS011;9641;51.494;6.670;2024-01-16T05:05:51;11.67;;;4.67;;
19016;SDS011;9641;51.494;6.670;2024-01-16T05:08:18;13.67;;;4.43;;
19016;SDS011;9641;51.494;6.670;2024-01-16T05:10:45;8.23;;;4.10;;
19016;SDS011;9641;51.494;6.670;2024-01-16T05:13:12;5.60;;;4.07;;
19016;SDS011;9641;51.494;6.670;2024-01-16T05:15:40;4.80;;;3.70;;
19016;SDS011;9641;51.494;6.670;2024-01-16T05:18:07;9.57;;;4.23;;
19016;SDS011;9641;51.494;6.670;2024-01-16T05:20:35;6.80;;;4.33;;
19016;SDS011;9641;51.494;6.670;2024-01-16T05:23:02;8.00;;;4.30;;
19016;SDS011;9641;51.494;6.670;2024-01-16T05:25:29;7.40;;;4.50;;
19016;SDS011;9641;51.494;6.670;2024-01-16T05:27:56;11.03;;;3.80;;
19016;SDS011;9641;51.494;6.670;2024-01-16T05:30:23;10.60;;;3.73;;
19016;SDS011;9641;51.494;6.670;2024-01-16T05:32:51;9.67;;;3.90;;
19016;SDS011;9641;51.494;6.670;2024-01-16T05:35:18;13.73;;;5.03;;
19016;SDS011;9641;51.494;6.670;2024-01-16T05:37:45;10.93;;;5.03;;
19016;SDS011;9641;51.494;6.670;2024-01-16T05:40:13;11.83;;;5.87;;
19016;SDS011;9641;51.494;6.670;2024-01-16T05:42:39;8.77;;;5.30;;
19016;SDS011;9641;51.494;6.670;2024-01-16T05:45:07;13.90;;;7.00;;
19016;SDS011;9641;51.494;6.670;2024-01-16T05:47:34;12.27;;;7.07;;
19016;SDS011;9641;51.494;6.670;2024-01-16T05:50:03;14.57;;;8.03;;
19016;SDS011;9641;51.494;6.670;2024-01-16T05:52:30;17.53;;;8.13;;
19016;SDS011;9641;51.494;6.670;2024-01-16T05:54:57;16.30;;;8.93;;
19016;SDS011;9641;51.494;6.670;2024-01-16T05:57:24;16.50;;;8.53;;
19016;SDS011;9641;51.494;6.670;2024-01-16T05:59:52;19.67;;;10.03;;
19016;SDS011;9641;51.494;6.670;2024-01-16T06:02:19;26.40;;;12.60;;
19016;SDS011;9641;51.494;6.670;2024-01-16T06:04:45;22.60;;;12.60;;
19016;SDS011;9641;51.494;6.670;2024-01-16T06:07:14;26.90;;;14.17;;
19016;SDS011;9641;51.494;6.670;2024-01-16T06:09:40;26.40;;;14.17;;
19016;SDS011;9641;51.494;6.670;2024-01-16T06:12:08;27.70;;;13.60;;
19016;SDS011;9641;51.494;6.670;2024-01-16T06:14:35;26.97;;;14.63;;
19016;SDS011;9641;51.494;6.670;2024-01-16T06:17:01;29.10;;;14.57;;
19016;SDS011;9641;51.494;6.670;2024-01-16T06:19:30;30.23;;;14.97;;
19016;SDS011;9641;51.494;6.670;2024-01-16T06:21:58;25.83;;;14.03;;
19016;SDS011;9641;51.494;6.670;2024-01-16T06:24:26;33.77;;;14.57;;
19016;SDS011;9641;51.494;6.670;2024-01-16T06:26:54;24.97;;;14.23;;
19016;SDS011;9641;51.494;6.670;2024-01-16T06:29:21;26.63;;;13.47;;
19016;SDS011;9641;51.494;6.670;2024-01-16T06:31:48;25.47;;;13.40;;
19016;SDS011;9641;51.494;6.670;2024-01-16T06:34:14;31.43;;;13.03;;
19016;SDS011;9641;51.494;6.670;2024-01-16T06:36:41;22.53;;;11.73;;
19016;SDS011;9641;51.494;6.670;2024-01-16T06:39:08;26.30;;;12.20;;
19016;SDS011;9641;51.494;6.670;2024-01-16T06:41:40;29.27;;;11.50;;
19016;SDS011;9641;51.494;6.670;2024-01-16T06:44:07;19.03;;;11.27;;
19016;SDS011;9641;51.494;6.670;2024-01-16T06:46:34;22.60;;;11.00;;
19016;SDS011;9641;51.494;6.670;2024-01-16T06:49:01;20.03;;;9.33;;
19016;SDS011;9641;51.494;6.670;2024-01-16T06:51:28;15.07;;;9.23;;
19016;SDS011;9641;51.494;6.670;2024-01-16T06:53:55;18.03;;;9.13;;
19016;SDS011;9641;51.494;6.670;2024-01-16T06:56:22;24.90;;;8.93;;
19016;SDS011;9641;51.494;6.670;2024-01-16T06:58:51;18.40;;;8.47;;
19016;SDS011;9641;51.494;6.670;2024-01-16T07:01:18;14.40;;;7.73;;
19016;SDS011;9641;51.494;6.670;2024-01-16T07:03:44;18.33;;;7.77;;
19016;SDS011;9641;51.494;6.670;2024-01-16T07:06:11;23.47;;;8.40;;
19016;SDS011;9641;51.494;6.670;2024-01-16T07:08:38;20.17;;;7.73;;
19016;SDS011;9641;51.494;6.670;2024-01-16T07:11:06;16.20;;;7.37;;
19016;SDS011;9641;51.494;6.670;2024-01-16T07:13:38;17.70;;;7.53;;
19016;SDS011;9641;51.494;6.670;2024-01-16T07:16:08;16.13;;;6.93;;
19016;SDS011;9641;51.494;6.670;2024-01-16T07:18:37;22.47;;;7.43;;
19016;SDS011;9641;51.494;6.670;2024-01-16T07:21:15;17.00;;;7.30;;
19016;SDS011;9641;51.494;6.670;2024-01-16T07:23:43;13.20;;;7.37;;
19016;SDS011;9641;51.494;6.670;2024-01-16T07:26:10;15.97;;;7.50;;
19016;SDS011;9641;51.494;6.670;2024-01-16T07:28:38;17.77;;;7.50;;
19016;SDS011;9641;51.494;6.670;2024-01-16T07:31:05;15.83;;;7.87;;
19016;SDS011;9641;51.494;6.670;2024-01-16T07:33:36;17.30;;;7.77;;
19016;SDS011;9641;51.494;6.670;2024-01-16T07:36:03;22.70;;;9.00;;
19016;SDS011;9641;51.494;6.670;2024-01-16T07:38:30;15.20;;;7.60;;
19016;SDS011;9641;51.494;6.670;2024-01-16T07:40:57;19.57;;;7.83;;
19016;SDS011;9641;51.494;6.670;2024-01-16T07:43:24;16.63;;;7.53;;
19016;SDS011;9641;51.494;6.670;2024-01-16T07:45:51;14.17;;;6.97;;
19016;SDS011;9641;51.494;6.670;2024-01-16T07:48:17;14.03;;;7.10;;
19016;SDS011;9641;51.494;6.670;2024-01-16T07:50:45;19.97;;;6.97;;
19016;SDS011;9641;51.494;6.670;2024-01-16T07:53:12;13.80;;;5.73;;
19016;SDS011;9641;51.494;6.670;2024-01-16T07:55:40;14.17;;;6.23;;
19016;SDS011;9641;51.494;6.670;2024-01-16T07:58:07;12.93;;;5.87;;
19016;SDS011;9641;51.494;6.670;2024-01-16T08:00:34;16.23;;;6.43;;
19016;SDS011;9641;51.494;6.670;2024-01-16T08:03:01;15.53;;;6.17;;
19016;SDS011;9641;51.494;6.670;2024-01-16T08:05:29;11.63;;;6.03;;
19016;SDS011;9641;51.494;6.670;2024-01-16T08:07:58;15.27;;;5.30;;
19016;SDS011;9641;51.494;6.670;2024-01-16T08:10:24;13.40;;;5.63;;
19016;SDS011;9641;51.494;6.670;2024-01-16T08:12:51;13.33;;;5.17;;
19016;SDS011;9641;51.494;6.670;2024-01-16T08:15:18;12.37;;;5.67;;
19016;SDS011;9641;51.494;6.670;2024-01-16T08:17:45;15.47;;;5.33;;
19016;SDS011;9641;51.494;6.670;2024-01-16T08:20:12;11.13;;;5.50;;
19016;SDS011;9641;51.494;6.670;2024-01-16T08:22:39;15.60;;;5.90;;
19016;SDS011;9641;51.494;6.670;2024-01-16T08:25:08;9.10;;;4.70;;
19016;SDS011;9641;51.494;6.670;2024-01-16T08:27:35;6.80;;;4.77;;
19016;SDS011;9641;51.494;6.670;2024-01-16T08:30:03;12.57;;;4.43;;
19016;SDS011;9641;51.494;6.670;2024-01-16T08:32:32;9.60;;;5.07;;
19016;SDS011;9641;51.494;6.670;2024-01-16T08:34:59;9.93;;;4.40;;
19016;SDS011;9641;51.494;6.670;2024-01-16T08:37:26;10.77;;;4.60;;
19016;SDS011;9641;51.494;6.670;2024-01-16T08:39:53;12.47;;;4.97;;
19016;SDS011;9641;51.494;6.670;2024-01-16T08:42:21;11.90;;;4.60;;
19016;SDS011;9641;51.494;6.670;2024-01-16T08:44:48;8.87;;;3.83;;
19016;SDS011;9641;51.494;6.670;2024-01-16T08:47:15;16.03;;;4.90;;
19016;SDS011;9641;51.494;6.670;2024-01-16T08:49:41;9.83;;;4.60;;
19016;SDS011;9641;51.494;6.670;2024-01-16T08:52:08;12.57;;;4.70;;
19016;SDS011;9641;51.494;6.670;2024-01-16T08:54:36;7.93;;;3.50;;
19016;SDS011;9641;51.494;6.670;2024-01-16T08:57:03;15.07;;;5.13;;
19016;SDS011;9641;51.494;6.670;2024-01-16T08:59:31;12.23;;;5.27;;
19016;SDS011;9641;51.494;6.670;2024-01-16T09:01:59;15.53;;;4.23;;
19016;SDS011;9641;51.494;6.670;2024-01-16T09:04:25;7.83;;;4.57;;
19016;SDS011;9641;51.494;6.670;2024-01-16T09:06:52;16.20;;;4.77;;
19016;SDS011;9641;51.494;6.670;2024-01-16T09:09:19;9.50;;;4.30;;
19016;SDS011;9641;51.494;6.670;2024-01-16T09:11:46;10.63;;;4.40;;
19016;SDS011;9641;51.494;6.670;2024-01-16T09:14:13;14.43;;;5.40;;
19016;SDS011;9641;51.494;6.670;2024-01-16T09:16:41;14.43;;;5.03;;
19016;SDS011;9641;51.494;6.670;2024-01-16T09:19:08;10.90;;;4.23;;
19016;SDS011;9641;51.494;6.670;2024-01-16T09:21:35;10.67;;;4.50;;
19016;SDS011;9641;51.494;6.670;2024-01-16T09:24:02;10.77;;;4.90;;
19016;SDS011;9641;51.494;6.670;2024-01-16T09:26:29;13.77;;;4.60;;
19016;SDS011;9641;51.494;6.670;2024-01-16T09:28:56;11.83;;;4.93;;
19016;SDS011;9641;51.494;6.670;2024-01-16T09:31:24;8.30;;;4.43;;
19016;SDS011;9641;51.494;6.670;2024-01-16T09:33:52;11.97;;;4.30;;
19016;SDS011;9641;51.494;6.670;2024-01-16T09:36:19;15.13;;;4.53;;
19016;SDS011;9641;51.494;6.670;2024-01-16T09:38:45;10.03;;;5.43;;
19016;SDS011;9641;51.494;6.670;2024-01-16T09:41:13;13.73;;;4.47;;
19016;SDS011;9641;51.494;6.670;2024-01-16T09:43:40;9.13;;;4.30;;
19016;SDS011;9641;51.494;6.670;2024-01-16T09:46:07;15.70;;;4.77;;
19016;SDS011;9641;51.494;6.670;2024-01-16T09:48:36;10.90;;;4.50;;
19016;SDS011;9641;51.494;6.670;2024-01-16T09:51:05;13.83;;;5.40;;
19016;SDS011;9641;51.494;6.670;2024-01-16T09:53:31;8.67;;;4.63;;
19016;SDS011;9641;51.494;6.670;2024-01-16T09:56:00;15.63;;;5.10;;
19016;SDS011;9641;51.494;6.670;2024-01-16T09:58:29;11.97;;;5.07;;
19016;SDS011;9641;51.494;6.670;2024-01-16T10:01:00;12.10;;;5.03;;
19016;SDS011;9641;51.494;6.670;2024-01-16T10:03:27;13.87;;;4.97;;
19016;SDS011;9641;51.494;6.670;2024-01-16T10:05:57;9.53;;;4.80;;
19016;SDS011;9641;51.494;6.670;2024-01-16T10:08:27;16.27;;;5.10;;
19016;SDS011;9641;51.494;6.670;2024-01-16T10:10:54;11.03;;;4.87;;
19016;SDS011;9641;51.494;6.670;2024-01-16T10:13:21;15.33;;;5.40;;
19016;SDS011;9641;51.494;6.670;2024-01-16T10:15:49;11.37;;;4.80;;
19016;SDS011;9641;51.494;6.670;2024-01-16T10:18:24;10.77;;;4.57;;
19016;SDS011;9641;51.494;6.670;2024-01-16T10:20:52;13.87;;;4.63;;
19016;SDS011;9641;51.494;6.670;2024-01-16T10:23:24;9.07;;;4.40;;
19016;SDS011;9641;51.494;6.670;2024-01-16T10:26:08;21.07;;;6.60;;
19016;SDS011;9641;51.494;6.670;2024-01-16T10:28:36;11.97;;;4.53;;
19016;SDS011;9641;51.494;6.670;2024-01-16T10:31:05;16.20;;;5.23;;
19016;SDS011;9641;51.494;6.670;2024-01-16T10:33:33;13.63;;;5.27;;
19016;SDS011;9641;51.494;6.670;2024-01-16T10:36:10;24.77;;;5.10;;
19016;SDS011;9641;51.494;6.670;2024-01-16T10:38:40;9.00;;;4.60;;
19016;SDS011;9641;51.494;6.670;2024-01-16T10:41:10;9.50;;;4.33;;
19016;SDS011;9641;51.494;6.670;2024-01-16T10:43:38;14.90;;;4.87;;
19016;SDS011;9641;51.494;6.670;2024-01-16T10:46:09;10.53;;;4.77;;
19016;SDS011;9641;51.494;6.670;2024-01-16T10:48:38;9.07;;;4.60;;
19016;SDS011;9641;51.494;6.670;2024-01-16T10:51:07;6.80;;;4.70;;
19016;SDS011;9641;51.494;6.670;2024-01-16T10:53:37;11.97;;;5.00;;
19016;SDS011;9641;51.494;6.670;2024-01-16T10:56:10;14.10;;;5.10;;
19016;SDS011;9641;51.494;6.670;2024-01-16T10:58:39;13.40;;;5.07;;
19016;SDS011;9641;51.494;6.670;2024-01-16T11:01:10;13.63;;;5.53;;
19016;SDS011;9641;51.494;6.670;2024-01-16T11:03:40;12.37;;;5.03;;
19016;SDS011;9641;51.494;6.670;2024-01-16T11:06:12;10.17;;;4.70;;
19016;SDS011;9641;51.494;6.670;2024-01-16T11:08:41;9.07;;;4.57;;
19016;SDS011;9641;51.494;6.670;2024-01-16T11:11:08;11.67;;;4.87;;
19016;SDS011;9641;51.494;6.670;2024-01-16T11:13:38;10.73;;;4.50;;
19016;SDS011;9641;51.494;6.670;2024-01-16T11:16:06;11.90;;;4.40;;
19016;SDS011;9641;51.494;6.670;2024-01-16T11:18:36;12.67;;;4.43;;
19016;SDS011;9641;51.494;6.670;2024-01-16T11:21:04;13.33;;;4.70;;
19016;SDS011;9641;51.494;6.670;2024-01-16T11:23:33;8.83;;;4.37;;
19016;SDS011;9641;51.494;6.670;2024-01-16T11:26:02;11.10;;;4.47;;
19016;SDS011;9641;51.494;6.670;2024-01-16T11:28:55;15.00;;;4.10;;
19016;SDS011;9641;51.494;6.670;2024-01-16T11:31:28;9.33;;;4.50;;
19016;SDS011;9641;51.494;6.670;2024-01-16T11:33:56;8.93;;;4.17;;
19016;SDS011;9641;51.494;6.670;2024-01-16T11:36:43;8.23;;;4.27;;
19016;SDS011;9641;51.494;6.670;2024-01-16T11:39:18;13.00;;;4.60;;
19016;SDS011;9641;51.494;6.670;2024-01-16T11:41:51;9.47;;;4.20;;
19016;SDS011;9641;51.494;6.670;2024-01-16T11:44:39;9.73;;;4.40;;
19016;SDS011;9641;51.494;6.670;2024-01-16T11:47:07;10.00;;;3.97;;
19016;SDS011;9641;51.494;6.670;2024-01-16T11:49:34;10.43;;;3.80;;
19016;SDS011;9641;51.494;6.670;2024-01-16T11:52:01;10.83;;;3.97;;
19016;SDS011;9641;51.494;6.670;2024-01-16T11:54:29;7.93;;;3.97;;
19016;SDS011;9641;51.494;6.670;2024-01-16T12:00:07;12.83;;;4.07;;
19016;SDS011;9641;51.494;6.670;2024-01-16T12:02:53;14.10;;;5.03;;
19016;SDS011;9641;51.494;6.670;2024-01-16T12:05:22;7.07;;;4.60;;
19016;SDS011;9641;51.494;6.670;2024-01-16T12:07:49;10.80;;;4.20;;
19016;SDS011;9641;51.494;6.670;2024-01-16T12:10:17;13.13;;;4.57;;
19016;SDS011;9641;51.494;6.670;2024-01-16T12:12:47;6.50;;;3.70;;
19016;SDS011;9641;51.494;6.670;2024-01-16T12:15:16;11.60;;;4.40;;
19016;SDS011;9641;51.494;6.670;2024-01-16T12:17:53;13.50;;;5.13;;
19016;SDS011;9641;51.494;6.670;2024-01-16T12:20:21;7.40;;;4.03;;
19016;SDS011;9641;51.494;6.670;2024-01-16T12:22:52;16.70;;;4.93;;
19016;SDS011;9641;51.494;6.670;2024-01-16T12:25:23;11.93;;;4.50;;
19016;SDS011;9641;51.494;6.670;2024-01-16T12:27:58;7.93;;;4.00;;
19016;SDS011;9641;51.494;6.670;2024-01-16T12:30:28;9.00;;;4.37;;
19016;SDS011;9641;51.494;6.670;2024-01-16T12:33:02;9.57;;;4.20;;
19016;SDS011;9641;51.494;6.670;2024-01-16T12:35:32;11.77;;;4.17;;
19016;SDS011;9641;51.494;6.670;2024-01-16T12:38:00;8.90;;;4.13;;
19016;SDS011;9641;51.494;6.670;2024-01-16T12:40:27;8.67;;;4.03;;
19016;SDS011;9641;51.494;6.670;2024-01-16T12:42:54;11.93;;;4.13;;
19016;SDS011;9641;51.494;6.670;2024-01-16T12:45:23;8.13;;;4.23;;
19016;SDS011;9641;51.494;6.670;2024-01-16T12:47:50;13.43;;;4.00;;
19016;SDS011;9641;51.494;6.670;2024-01-16T12:50:21;9.73;;;4.83;;
19016;SDS011;9641;51.494;6.670;2024-01-16T12:52:49;8.73;;;3.77;;
19016;SDS011;9641;51.494;6.670;2024-01-16T12:55:16;10.97;;;3.80;;
19016;SDS011;9641;51.494;6.670;2024-01-16T12:57:44;11.13;;;4.23;;
19016;SDS011;9641;51.494;6.670;2024-01-16T13:00:23;11.93;;;3.77;;
19016;SDS011;9641;51.494;6.670;2024-01-16T13:02:50;8.97;;;4.50;;
19016;SDS011;9641;51.494;6.670;2024-01-16T13:05:20;8.63;;;3.80;;
19016;SDS011;9641;51.494;6.670;2024-01-16T13:07:59;8.77;;;4.40;;
19016;SDS011;9641;51.494;6.670;2024-01-16T13:10:28;8.40;;;4.20;;
19016;SDS011;9641;51.494;6.670;2024-01-16T13:13:11;12.30;;;4.90;;
19016;SDS011;9641;51.494;6.670;2024-01-16T13:15:40;9.83;;;4.80;;
19016;SDS011;9641;51.494;6.670;2024-01-16T13:18:16;7.87;;;4.07;;
19016;SDS011;9641;51.494;6.670;2024-01-16T13:20:45;12.63;;;4.80;;
19016;SDS011;9641;51.494;6.670;2024-01-16T13:23:13;10.67;;;4.83;;
19016;SDS011;9641;51.494;6.670;2024-01-16T13:25:42;10.27;;;4.33;;
19016;SDS011;9641;51.494;6.670;2024-01-16T13:28:10;7.93;;;4.07;;
19016;SDS011;9641;51.494;6.670;2024-01-16T13:30:37;11.07;;;4.70;;
19016;SDS011;9641;51.494;6.670;2024-01-16T13:33:05;11.87;;;4.13;;
19016;SDS011;9641;51.494;6.670;2024-01-16T13:35:34;12.87;;;4.70;;
19016;SDS011;9641;51.494;6.670;2024-01-16T13:38:01;8.53;;;5.20;;
19016;SDS011;9641;51.494;6.670;2024-01-16T13:40:29;11.47;;;4.80;;
19016;SDS011;9641;51.494;6.670;2024-01-16T13:42:55;8.80;;;4.90;;
19016;SDS011;9641;51.494;6.670;2024-01-16T13:45:22;10.80;;;5.40;;
19016;SDS011;9641;51.494;6.670;2024-01-16T13:47:49;8.60;;;4.43;;
19016;SDS011;9641;51.494;6.670;2024-01-16T13:50:18;12.10;;;4.87;;
19016;SDS011;9641;51.494;6.670;2024-01-16T13:52:45;15.97;;;5.30;;
19016;SDS011;9641;51.494;6.670;2024-01-16T13:55:12;7.77;;;4.50;;
19016;SDS011;9641;51.494;6.670;2024-01-16T13:57:40;10.10;;;4.27;;
19016;SDS011;9641;51.494;6.670;2024-01-16T14:00:07;9.87;;;4.37;;
19016;SDS011;9641;51.494;6.670;2024-01-16T14:02:38;10.20;;;4.67;;
19016;SDS011;9641;51.494;6.670;2024-01-16T14:05:06;10.20;;;4.30;;
19016;SDS011;9641;51.494;6.670;2024-01-16T14:07:37;9.80;;;4.30;;
19016;SDS011;9641;51.494;6.670;2024-01-16T14:10:07;10.40;;;4.67;;
19016;SDS011;9641;51.494;6.670;2024-01-16T14:12:37;11.80;;;4.77;;
19016;SDS011;9641;51.494;6.670;2024-01-16T14:15:04;8.77;;;4.50;;
19016;SDS011;9641;51.494;6.670;2024-01-16T14:17:41;6.67;;;4.53;;
19016;SDS011;9641;51.494;6.670;2024-01-16T14:20:08;11.13;;;5.07;;
19016;SDS011;9641;51.494;6.670;2024-01-16T14:22:38;7.83;;;4.77;;
19016;SDS011;9641;51.494;6.670;2024-01-16T14:25:06;10.97;;;5.00;;
19016;SDS011;9641;51.494;6.670;2024-01-16T14:27:36;8.87;;;5.03;;
19016;SDS011;9641;51.494;6.670;2024-01-16T14:30:06;8.33;;;5.03;;
19016;SDS011;9641;51.494;6.670;2024-01-16T14:32:35;9.00;;;4.60;;
19016;SDS011;9641;51.494;6.670;2024-01-16T14:35:04;11.23;;;4.80;;
19016;SDS011;9641;51.494;6.670;2024-01-16T14:37:31;10.30;;;4.33;;
19016;SDS011;9641;51.494;6.670;2024-01-16T14:39:59;8.40;;;4.27;;
19016;SDS011;9641;51.494;6.670;2024-01-16T14:42:27;10.23;;;4.70;;
19016;SDS011;9641;51.494;6.670;2024-01-16T14:44:54;9.90;;;4.37;;
19016;SDS011;9641;51.494;6.670;2024-01-16T14:47:21;7.03;;;4.10;;
19016;SDS011;9641;51.494;6.670;2024-01-16T14:49:49;5.93;;;4.23;;
19016;SDS011;9641;51.494;6.670;2024-01-16T14:52:16;6.40;;;3.97;;
19016;SDS011;9641;51.494;6.670;2024-01-16T14:54:44;8.37;;;4.20;;
19016;SDS011;9641;51.494;6.670;2024-01-16T14:57:12;8.07;;;4.30;;
19016;SDS011;9641;51.494;6.670;2024-01-16T14:59:39;7.57;;;4.00;;